KMYZ

Marysville Municipal Airport

Marysville, Kansas, USA
METAR KMYZ 231055Z AUTO 34014G18KT 10SM OVC013 M03/M05 A3008 RMK AO2
Observed Flight Rules
Jan-23 @ 10:55 UTC (56 minutes ago) Marginal Visual Flight Rules
Wind Visibility Clouds
340° at 14 knots
 Gusting to 18 knots
10 miles
  • Overcast at 1,300' AGL
Temperatures Readings
Current -3°C / 27°F
Dewpoint -5°C / 23°F
Humidity 86%
Altimeter 30.08" Hg
Pressure 1019 hPa
Elevation 319
METAR KMYZ 231055Z AUTO 34014G18KT 10SM OVC013 M03/M05 A3008 RMK AO2
Observed Flight Rules
Jan-23 @ 10:55 UTC
(56 minutes ago)
MVFR
Wind Visibility
340° at 14 knots
 Gusting to 18 knots
10 miles
Clouds
  • Overcast at 1,300' AGL
Temperature Dewpoint
-3°C / 27°F -5°C / 23°F
Humidity Altimeter Pressure
86% 30.08" Hg 1019 hPa